地図

経路データ

SID SEASON NUMBER BASIN SUBBASIN NAME ISO_TIME NATURE LAT LON WMO_WIND WMO_PRES WMO_AGENCY TRACK_TYPE DIST2LAND LANDFALL IFLAG USA_AGENCY USA_ATCF_ID USA_LAT USA_LON USA_RECORD USA_STATUS USA_WIND USA_PRES USA_SSHS USA_R34_NE USA_R34_SE USA_R34_SW USA_R34_NW USA_R50_NE USA_R50_SE USA_R50_SW USA_R50_NW USA_R64_NE USA_R64_SE USA_R64_SW USA_R64_NW USA_POCI USA_ROCI USA_RMW USA_EYE TOKYO_LAT TOKYO_LON TOKYO_GRADE TOKYO_WIND TOKYO_PRES TOKYO_R50_DIR TOKYO_R50_LONG TOKYO_R50_SHORT TOKYO_R30_DIR TOKYO_R30_LONG TOKYO_R30_SHORT TOKYO_LAND CMA_LAT CMA_LON CMA_CAT CMA_WIND CMA_PRES HKO_LAT HKO_LON HKO_CAT HKO_WIND HKO_PRES NEWDELHI_LAT NEWDELHI_LON NEWDELHI_GRADE NEWDELHI_WIND NEWDELHI_PRES NEWDELHI_CI NEWDELHI_DP NEWDELHI_POCI REUNION_LAT REUNION_LON REUNION_TYPE REUNION_WIND REUNION_PRES REUNION_TNUM REUNION_CI REUNION_RMW REUNION_R34_NE REUNION_R34_SE REUNION_R34_SW REUNION_R34_NW REUNION_R50_NE REUNION_R50_SE REUNION_R50_SW REUNION_R50_NW REUNION_R64_NE REUNION_R64_SE REUNION_R64_SW REUNION_R64_NW BOM_LAT BOM_LON BOM_TYPE BOM_WIND BOM_PRES BOM_TNUM BOM_CI BOM_RMW BOM_R34_NE BOM_R34_SE BOM_R34_SW BOM_R34_NW BOM_R50_NE BOM_R50_SE BOM_R50_SW BOM_R50_NW BOM_R64_NE BOM_R64_SE BOM_R64_SW BOM_R64_NW BOM_ROCI BOM_POCI BOM_EYE BOM_POS_METHOD BOM_PRES_METHOD NADI_LAT NADI_LON NADI_CAT NADI_WIND NADI_PRES WELLINGTON_LAT WELLINGTON_LON WELLINGTON_WIND WELLINGTON_PRES DS824_LAT DS824_LON DS824_STAGE DS824_WIND DS824_PRES TD9636_LAT TD9636_LON TD9636_STAGE TD9636_WIND TD9636_PRES TD9635_LAT TD9635_LON TD9635_WIND TD9635_PRES TD9635_ROCI NEUMANN_LAT NEUMANN_LON NEUMANN_CLASS NEUMANN_WIND NEUMANN_PRES MLC_LAT MLC_LON MLC_CLASS MLC_WIND MLC_PRES USA_GUST BOM_GUST BOM_GUST_PER REUNION_GUST REUNION_GUST_PER USA_SEAHGT USA_SEARAD_NE USA_SEARAD_SE USA_SEARAD_SW USA_SEARAD_NW STORM_SPEED STORM_DIR
1982075S11096 1982 20 SI WA NOT_NAMED 1982-03-15 12:00:00 TS -10.8000 96.3000 main 1009 1009 O_________O_O_ jtwc_sh SH231982 -10.8000 96.3000 20 -1 -10.8000 96.3000 1 20 -10.8000 96.3000 TC 20 9 221
1982075S11096 1982 20 SI WA NOT_NAMED 1982-03-15 15:00:00 TS -11.1392 95.9951 main 1056 1056 P_________P_P_ SH231982 -11.1376 96.0026 22 -1 -11.1426 95.9800 1 21 -11.1376 96.0026 TC 22 9 221
1982075S11096 1982 20 SI WA NOT_NAMED 1982-03-15 18:00:00 TS -11.4993 95.6892 main 1111 1111 O_________P_O_ jtwc_sh SH231982 -11.5000 95.7000 25 -1 -11.4980 95.6677 1 22 -11.5000 95.7000 TC 25 10 218
1982075S11096 1982 20 SI WA NOT_NAMED 1982-03-15 21:00:00 TS -11.8931 95.3855 main 1166 1166 P_________P_P_ SH231982 -11.9000 95.3925 25 -1 -11.8793 95.3716 1 23 -11.9000 95.3925 TC 25 10 216
1982075S11096 1982 20 SI WA NOT_NAMED 1982-03-16 00:00:00 TS -12.3000 95.1000 main 1221 1221 O_________O_O_ jtwc_sh SH231982 -12.3000 95.1000 25 -1 -12.3000 95.1000 1 25 -12.3000 95.1000 TC 25 10 214
1982075S11096 1982 20 SI WA NOT_NAMED 1982-03-16 03:00:00 TS -12.6867 94.8425 main 1276 1276 P_________P_P_ SH231982 -12.6500 94.8349 25 -1 -12.7601 94.8577 1 25 -12.6500 94.8349 TC 25 9 212
1982075S11096 1982 20 SI WA NOT_NAMED 1982-03-16 06:00:00 TS -13.0691 94.6118 main 1325 1325 O_________P_O_ jtwc_sh SH231982 -13.0000 94.6000 25 -1 -13.2072 94.6355 1 25 -13.0000 94.6000 TC 25 9 207
1982075S11096 1982 20 SI WA NOT_NAMED 1982-03-16 09:00:00 TS -13.5085 94.4069 main 1373 1373 P_________P_P_ SH231982 -13.4749 94.4001 25 -1 -13.5757 94.4204 1 25 -13.4749 94.4001 TC 25 8 209
1982075S11096 1982 20 SI WA NOT_NAMED 1982-03-16 12:00:00 TS -13.8000 94.2000 main 1412 1412 O_________O_O_ jtwc_sh SH231982 -13.8000 94.2000 25 -1 -13.8000 94.2000 1 25 -13.8000 94.2000 TC 25 5 244
1982075S11096 1982 20 SI WA NOT_NAMED 1982-03-16 15:00:00 TS -13.7255 93.9501 main 1418 1418 P_________P_P_ SH231982 -13.7325 93.9573 25 -1 -13.7116 93.9357 1 25 -13.7325 93.9573 TC 25 6 301
1982075S11096 1982 20 SI WA NOT_NAMED 1982-03-16 18:00:00 TS -13.4975 93.6895 main 1423 1421 O_________P_O_ jtwc_sh SH231982 -13.5000 93.7000 25 -1 -13.4926 93.6684 1 25 -13.5000 93.7000 TC 25 7 312
1982075S11096 1982 20 SI WA NOT_NAMED 1982-03-16 21:00:00 TS -13.2708 93.4289 main 1428 1420 P_________P_P_ SH231982 -13.2675 93.4348 25 -1 -13.2773 93.4170 1 25 -13.2675 93.4348 TC 25 6 302
1982075S11096 1982 20 SI WA NOT_NAMED 1982-03-17 00:00:00 TS -13.2000 93.2000 main 1432 1432 O_________O_O_ jtwc_sh SH231982 -13.2000 93.2000 25 -1 -13.2000 93.2000 1 25 -13.2000 93.2000 TC 25 4 239
1982075S11096 1982 20 SI WA NOT_NAMED 1982-03-17 03:00:00 TS -13.4949 93.0449 main 1472 1472 P_________P_P_ SH231982 -13.5175 93.0276 25 -1 -13.4497 93.0795 1 26 -13.5175 93.0276 TC 25 8 199
1982075S11096 1982 20 SI WA NOT_NAMED 1982-03-17 06:00:00 TS -13.9498 92.9290 main 1514 1514 O_________P_O_ jtwc_sh SH231982 -14.0000 92.9000 25 -1 -13.8495 92.9870 1 27 -14.0000 92.9000 TC 25 9 192
1982075S11096 1982 20 SI WA NOT_NAMED 1982-03-17 09:00:00 TS -14.3798 92.8502 main 1555 1555 P_________P_P_ SH231982 -14.4074 92.8372 27 -1 -14.3246 92.8761 1 28 -14.4074 92.8372 TC 27 9 195
1982075S11096 1982 20 SI WA NOT_NAMED 1982-03-17 12:00:00 TS -14.8000 92.7000 main 1603 1603 O_________O_O_ jtwc_sh SH231982 -14.8000 92.7000 30 -1 -14.8000 92.7000 1 30 -14.8000 92.7000 TC 30 9 212
1982075S11096 1982 20 SI WA NOT_NAMED 1982-03-17 15:00:00 TS -15.1574 92.3373 main 1665 1665 P_________P_P_ SH231982 -15.1576 92.3376 32 -1 -15.1570 92.3368 1 32 -15.1576 92.3376 TC 32 10 228
1982075S11096 1982 20 SI WA NOT_NAMED 1982-03-17 18:00:00 TS -15.5004 91.9046 main 1719 1719 O_________P_O_ jtwc_sh SH231982 -15.5000 91.9000 35 0 -15.5011 91.9138 1 35 -15.5000 91.9000 TC 35 11 230
1982075S11096 1982 20 SI WA NOT_NAMED 1982-03-17 21:00:00 TS -15.8432 91.4963 main 1772 1772 P_________P_P_ SH231982 -15.8426 91.4901 37 0 -15.8445 91.5088 1 37 -15.8426 91.4901 TC 37 10 224
1982075S11096 1982 20 SI WA NOT_NAMED 1982-03-18 00:00:00 TS -16.2000 91.2000 main 1827 1827 O_________O_O_ jtwc_sh SH231982 -16.2000 91.2000 40 0 -16.2000 91.2000 2 40 -16.2000 91.2000 TC 40 8 205
1982075S11096 1982 20 SI WA NOT_NAMED 1982-03-18 03:00:00 TS -16.5927 91.1379 main 1867 1867 P_________P_P_ SH231982 -16.5924 91.1472 40 0 -16.5933 91.1193 2 40 -16.5924 91.1472 TC 40 8 182
1982075S11096 1982 20 SI WA NOT_NAMED 1982-03-18 06:00:00 TS -16.9998 91.1794 main 1894 1894 O_________P_O_ jtwc_sh SH231982 -17.0000 91.2000 40 0 -16.9995 91.1381 2 40 -17.0000 91.2000 TC 40 8 175
1982075S11096 1982 20 SI WA NOT_NAMED 1982-03-18 09:00:00 TS -17.4070 91.2109 main 1926 1926 P_________P_P_ SH231982 -17.4075 91.2224 40 0 -17.4059 91.1881 2 40 -17.4075 91.2224 TC 40 8 0
1982075S11096 1982 20 SI WA NOT_NAMED 1982-03-18 12:00:00 TS -17.8000 91.2000 main 1955 1955 O_________O_O_ jtwc_sh SH231982 -17.8000 91.2000 40 0 -17.8000 91.2000 2 40 -17.8000 91.2000 TC 40 8 189
1982075S11096 1982 20 SI WA NOT_NAMED 1982-03-18 15:00:00 TS -18.1733 91.0813 main 1991 1991 P_________P_P_ SH231982 -18.1575 91.0800 37 0 -18.2050 91.0840 2 37 -18.1575 91.0800 TC 37 8 201
1982075S11096 1982 20 SI WA NOT_NAMED 1982-03-18 18:00:00 TS -18.5300 90.9061 main 2028 2028 O_________P_O_ jtwc_sh SH231982 -18.5000 90.9000 35 0 -18.5900 90.9182 2 35 -18.5000 90.9000 TC 35 8 206
1982075S11096 1982 20 SI WA NOT_NAMED 1982-03-18 21:00:00 TS -18.9016 90.7162 main 2073 2073 P_________P_P_ SH231982 -18.8875 90.7151 32 -1 -18.9300 90.7183 2 32 -18.8875 90.7151 TC 32 8 210
1982075S11096 1982 20 SI WA NOT_NAMED 1982-03-19 00:00:00 TS -19.2000 90.5000 main 2110 2110 O_________O_O_ jtwc_sh SH231982 -19.2000 90.5000 30 -1 -19.2000 90.5000 1 30 -19.2000 90.5000 TC 30 6 225
1982075S11096 1982 20 SI WA NOT_NAMED 1982-03-19 03:00:00 TS -19.3395 90.2574 main 2133 2133 P_________P_P_ SH231982 -19.3375 90.2499 27 -1 -19.3435 90.2726 1 28 -19.3375 90.2499 TC 27 5 246
1982075S11096 1982 20 SI WA NOT_NAMED 1982-03-19 06:00:00 TS -19.4076 90.0114 main 2165 2165 O_________P_O_ jtwc_sh SH231982 -19.4000 90.0000 25 -1 -19.4227 90.0342 1 27 -19.4000 90.0000 TC 25 5 252
1982075S11096 1982 20 SI MM NOT_NAMED 1982-03-19 09:00:00 TS -19.4818 89.7912 main 2188 2188 P_________P_P_ SH231982 -19.4775 89.7849 25 -1 -19.4904 89.8039 1 26 -19.4775 89.7849 TC 25 4 244
1982075S11096 1982 20 SI MM NOT_NAMED 1982-03-19 12:00:00 TS -19.6000 89.6000 main 2212 2212 O_________O_O_ jtwc_sh SH231982 -19.6000 89.6000 25 -1 -19.6000 89.6000 1 25 -19.6000 89.6000 TC 25 5 226
1982075S11096 1982 20 SI MM NOT_NAMED 1982-03-19 15:00:00 TS -19.8106 89.4354 main 2242 2242 P_________P_P_ SH231982 -19.8200 89.4350 25 -1 -19.7918 89.4361 1 25 -19.8200 89.4350 TC 25 6 210
1982075S11096 1982 20 SI MM NOT_NAMED 1982-03-19 18:00:00 TS -20.0850 89.3019 main 2271 2271 O_________P_O_ jtwc_sh SH231982 -20.1000 89.3000 25 -1 -20.0549 89.3056 1 25 -20.1000 89.3000 TC 25 6 201
1982075S11096 1982 20 SI MM NOT_NAMED 1982-03-19 21:00:00 TS -20.3869 89.1942 main 2300 2300 P_________P_P_ SH231982 -20.3975 89.1925 25 -1 -20.3656 89.1974 1 25 -20.3975 89.1925 TC 25 6 197
1982075S11096 1982 20 SI MM NOT_NAMED 1982-03-20 00:00:00 TS -20.7000 89.1000 main 2330 O_________O_O_ jtwc_sh SH231982 -20.7000 89.1000 25 -1 -20.7000 89.1000 1 25 -20.7000 89.1000 TC 25 7 196

IBTrACS Databaseについて

本データベースは、米国NOAAが公開する1842年以降の世界の熱帯低気圧のベストトラックデータアーカイブInternational Best Track Archive for Climate Stewardship (IBTrACS)を、ウェブで閲覧しやすい形式に変換したものです。

最終更新日:2021-10-08